Latest Weather Observations for Beaudesert AWS

IDQ60901

Issued at 7:51 am EST Tuesday 17 January 2017 (issued every 10 minutes, with the page automatically refreshed every 10 minutes)

About weather observations | Map of Brisbane area stations | Latest observations for Brisbane area | Other Formats
Station Details ID: 040983 Name: BEAUDESERT DRUMLEY STREET Lat: -27.97 Lon: 152.99 Height: 47.81 m
Data from the previous 72 hours. | See also: Recent months at Beaudesert AWS
Date/Time
EST
Temp
°C
App
Temp
°C
Dew
Point
°C
Rel
Hum
%
Delta-T
°C
Wind Press
QNH
hPa
Press
MSL
hPa
Rain since
9am
mm
Dir  Spd
km/h
Gust
km/h
Spd
kts
Gust
kts
17/07:30am 25.4 29.5 21.5 79 2.6 WSW 2 6 1 3 1017.5 1017.3 0.0
17/07:00am 24.4 28.7 21.1 82 2.2 CALM 0 0 0 0 1017.3 1017.1 0.0
17/06:30am 23.1 26.7 20.6 86 1.6 SSW 2 4 1 2 1017.2 1017.0 0.0
17/06:00am 22.7 26.9 21.0 90 1.1 CALM 0 0 0 0 1017.0 1016.8 0.0
17/05:30am 21.3 25.3 20.6 96 0.5 CALM 0 0 0 0 1016.7 1016.5 0.0
17/05:00am 21.4 25.5 20.7 96 0.5 CALM 0 0 0 0 1016.4 1016.2 0.0
17/04:30am 21.5 25.7 21.0 97 0.3 CALM 0 0 0 0 1016.1 1015.9 0.0
17/04:00am 21.1 24.9 20.1 94 0.6 CALM 0 0 0 0 1015.9 1015.7 0.0
17/03:30am 21.8 26.1 21.1 96 0.5 CALM 0 0 0 0 1015.7 1015.5 0.0
17/03:00am 21.5 25.6 20.8 96 0.5 CALM 0 0 0 0 1015.6 1015.4 0.0
17/02:30am 21.4 25.3 20.4 94 0.6 CALM 0 0 0 0 1015.7 1015.5 0.0
17/02:00am 21.7 25.9 20.9 95 0.5 CALM 0 0 0 0 1015.8 1015.6 0.0
17/01:30am 21.9 26.0 20.7 93 0.8 CALM 0 0 0 0 1015.9 1015.7 0.0
17/01:00am 22.6 27.0 21.4 93 0.8 CALM 0 0 0 0 1016.0 1015.8 0.0
17/12:30am 22.9 27.4 21.5 92 0.9 CALM 0 0 0 0 1016.1 1015.9 0.0
17/12:00am 23.5 27.8 21.2 87 1.5 CALM 0 0 0 0 1016.2 1016.0 0.0
 
Date/Time
EST
Temp
°C
App
Temp
°C
Dew
Point
°C
Rel
Hum
%
Delta-T
°C
Wind Press
QNH
hPa
Press
MSL
hPa
Rain since
9am
mm
Dir  Spd
km/h
Gust
km/h
Spd
kts
Gust
kts
16/11:30pm 24.4 28.5 21.5 84 1.9 ENE 2 4 1 2 1016.4 1016.2 0.0
16/11:00pm 25.1 29.3 21.8 82 2.2 NE 2 6 1 3 1016.5 1016.3 0.0
16/10:30pm 25.3 29.3 22.0 82 2.2 ENE 4 6 2 3 1016.6 1016.4 0.0
16/10:00pm 25.4 30.2 22.1 82 2.2 CALM 0 0 0 0 1016.7 1016.5 0.0
16/09:30pm 25.6 30.3 21.9 80 2.5 CALM 0 0 0 0 1016.8 1016.6 0.0
16/09:00pm 25.6 30.3 21.9 80 2.5 CALM 0 0 0 0 1016.7 1016.5 0.0
16/08:30pm 25.7 29.9 21.8 79 2.6 E 2 4 1 2 1016.5 1016.3 0.0
16/08:00pm 26.0 30.2 21.7 77 2.9 E 2 6 1 3 1016.3 1016.1 0.0
16/07:30pm 26.2 29.6 21.6 76 3.1 ENE 6 7 3 4 1016.1 1015.9 0.0
16/07:00pm 26.5 29.8 21.5 74 3.3 ENE 6 9 3 5 1015.8 1015.6 0.0
16/06:30pm 26.9 30.0 21.4 72 3.7 E 7 11 4 6 1015.4 1015.2 0.0
16/06:00pm 27.6 30.7 21.4 69 4.1 E 7 13 4 7 1015.0 1014.8 0.0
16/05:30pm 27.9 30.1 21.2 67 4.5 E 11 17 6 9 1014.6 1014.4 0.0
16/05:00pm 28.8 31.9 22.1 67 4.5 E 9 17 5 9 1014.1 1013.9 0.0
16/04:30pm 28.6 30.9 21.4 65 4.8 E 11 20 6 11 1013.8 1013.5 0.0
16/04:00pm 29.5 31.3 21.2 61 5.6 NE 13 20 7 11 1013.6 1013.3 0.0
16/03:30pm 29.9 32.0 21.0 59 5.9 ENE 11 17 6 9 1013.5 1013.2 0.0
16/03:00pm 29.9 32.2 20.7 57 6.1 ENE 9 17 5 9 1013.5 1013.2 0.0
16/02:30pm 30.4 32.8 20.9 57 6.3 NE 9 15 5 8 1013.4 1013.1 0.0
16/02:00pm 30.5 33.1 20.4 54 6.7 NE 7 15 4 8 1013.5 1013.2 0.0
16/01:30pm 30.8 34.1 20.7 55 6.7 WSW 4 6 2 3 1013.7 1013.4 0.0
16/01:00pm 30.4 34.0 20.6 55 6.5 NW 2 4 1 2 1014.0 1013.7 0.0
16/12:30pm 30.6 34.1 21.1 57 6.4 N 4 9 2 5 1014.1 1013.9 0.0
16/12:00pm 29.9 33.0 21.0 59 5.9 NNW 6 9 3 5 1014.4 1014.2 0.0
16/11:30am 29.6 32.9 20.7 58 5.9 NE 4 6 2 3 1014.6 1014.4 0.0
16/11:00am 28.9 32.4 21.1 62 5.2 WSW 4 6 2 3 1014.9 1014.7 0.0
16/10:30am 28.9 32.1 21.7 65 4.8 WSW 7 11 4 6 1015.0 1014.8 0.0
16/10:00am 28.4 31.4 21.2 65 4.8 SSW 7 11 4 6 1015.2 1015.0 0.0
16/09:30am 28.3 31.5 21.3 65 4.7 SSW 6 11 3 6 1015.4 1015.2 0.0
16/09:00am 27.6 30.0 21.6 70 4.0 SW 11 15 6 8 1015.5 1015.3 23.8
16/08:30am 27.1 30.0 21.8 73 3.6 SW 9 15 5 8 1015.6 1015.4 23.8
16/08:00am 26.2 29.1 21.8 77 2.9 SW 9 15 5 8 1015.3 1015.1 23.8
16/07:30am 25.3 27.7 20.8 76 3.0 SSW 9 13 5 7 1015.1 1014.9 23.6
16/07:00am 24.2 26.9 20.7 81 2.3 SW 7 11 4 6 1015.1 1014.9 23.6
16/06:30am 23.7 26.3 20.0 80 2.4 SSW 6 9 3 5 1014.8 1014.6 23.6
16/06:00am 22.8 25.8 20.1 85 1.7 SSW 4 7 2 4 1014.5 1014.3 23.6
16/05:30am 21.9 24.5 20.0 89 1.2 SSW 6 9 3 5 1014.2 1014.0 23.6
16/05:00am 21.8 24.1 19.9 89 1.2 SSW 7 13 4 7 1013.6 1013.3 23.6
16/04:30am 21.5 24.0 19.8 90 1.1 SW 6 7 3 4 1013.2 1012.9 23.6
16/04:00am 21.9 24.5 20.0 89 1.2 SSW 6 7 3 4 1012.8 1012.5 23.6
16/03:30am 22.1 24.8 20.2 89 1.2 SSW 6 7 3 4 1012.6 1012.3 23.6
16/03:00am 21.9 25.0 20.2 90 1.1 SSW 4 4 2 2 1012.5 1012.2 23.6
16/02:30am 22.0 24.7 20.3 90 1.1 S 6 9 3 5 1012.8 1012.5 23.6
16/02:00am 22.1 25.0 20.6 91 1.0 SW 6 9 3 5 1012.9 1012.6 23.6
16/01:30am 21.8 25.0 20.6 93 0.8 SW 4 6 2 3 1013.0 1012.7 23.6
16/01:00am 21.7 24.4 20.3 92 0.9 SW 6 9 3 5 1013.2 1012.9 23.6
16/12:30am 22.3 25.2 20.6 90 1.1 SW 6 9 3 5 1013.6 1013.3 23.6
16/12:00am 22.5 25.6 21.0 91 1.0 SSE 6 9 3 5 1013.9 1013.6 23.6
 
Date/Time
EST
Temp
°C
App
Temp
°C
Dew
Point
°C
Rel
Hum
%
Delta-T
°C
Wind Press
QNH
hPa
Press
MSL
hPa
Rain since
9am
mm
Dir  Spd
km/h
Gust
km/h
Spd
kts
Gust
kts
15/11:30pm 22.7 25.6 21.0 90 1.1 SSW 7 11 4 6 1014.3 1014.1 23.6
15/11:00pm 22.8 26.0 21.3 91 1.0 SSW 6 9 3 5 1014.6 1014.4 23.6
15/10:30pm 23.0 26.1 21.5 91 1.0 SSW 7 17 4 9 1014.4 1014.2 23.6
15/10:00pm 22.9 26.0 21.5 92 0.9 SSW 7 13 4 7 1014.3 1014.1 23.6
15/09:30pm 23.0 26.4 22.0 94 0.7 SW 7 13 4 7 1013.9 1013.6 23.6
15/09:00pm 23.3 26.5 22.3 94 0.7 SSW 9 19 5 10 1014.1 1013.9 23.6
15/08:30pm 24.1 28.0 22.9 93 0.8 NNW 7 9 4 5 1013.7 1013.4 15.0
15/08:00pm 24.8 30.0 23.6 93 0.8 NW 2 6 1 3 1012.6 1012.3 12.2
15/07:30pm 24.5 29.8 23.1 92 0.9 CALM 0 0 0 0 1012.1 1011.8 12.2
15/07:00pm 24.6 30.0 23.2 92 1.0 CALM 0 0 0 0 1011.6 1011.3 12.2
15/06:30pm 24.6 29.3 23.4 93 0.8 WNW 4 7 2 4 1010.8 1010.5 11.8
15/06:00pm 25.2 30.0 22.9 87 1.6 ESE 2 6 1 3 1010.5 1010.2 4.0
15/05:30pm 26.1 28.9 23.0 83 2.1 SW 13 20 7 11 1009.7 1009.4 0.4
15/05:00pm 28.6 32.0 23.3 73 3.6 SE 11 19 6 10 1009.4 1009.1 0.4
15/04:30pm 27.5 30.7 23.7 80 2.6 SSE 13 19 7 10 1009.0 1008.7 0.2
15/04:00pm 30.8 34.1 23.2 64 5.2 ENE 11 20 6 11 1008.7 1008.4 0.2
15/03:30pm 32.1 35.7 23.1 59 6.2 ENE 9 17 5 9 1008.1 1007.8 0.2
15/03:00pm 32.2 35.2 22.6 57 6.6 ENE 11 19 6 10 1008.0 1007.7 0.2
15/02:30pm 32.8 35.4 22.6 55 7.0 ENE 13 24 7 13 1008.3 1008.0 0.2
15/02:00pm 32.9 35.8 23.2 56 6.7 ENE 13 20 7 11 1008.7 1008.4 0.2
15/01:30pm 32.0 34.8 23.0 59 6.2 E 13 20 7 11 1009.1 1008.8 0.2
15/01:00pm 30.9 33.4 22.5 61 5.7 E 13 19 7 10 1009.3 1009.0 0.0
15/12:30pm 30.9 33.4 22.5 61 5.7 ESE 13 20 7 11 1009.6 1009.3 0.0
15/12:00pm 30.8 33.5 22.1 59 5.9 ESE 11 19 6 10 1009.6 1009.3 0.0
15/11:30am 31.0 35.2 23.4 64 5.3 SE 7 15 4 8 1009.6 1009.3 0.0
15/11:00am 30.0 34.5 22.9 65 4.9 W 4 6 2 3 1009.6 1009.3 0.0
15/10:30am 29.4 33.5 22.9 68 4.4 SSE 6 11 3 6 1009.9 1009.6 0.0
15/10:00am 28.6 32.8 23.5 74 3.5 SE 7 13 4 7 1009.7 1009.4 0.0
15/09:30am 27.6 32.5 23.6 79 2.7 SSE 4 6 2 3 1009.5 1009.2 0.0
15/09:00am 27.1 31.8 23.3 80 2.6 W 4 6 2 3 1009.3 1009.0 9.2
15/08:30am 26.7 31.6 23.6 83 2.1 NE 4 9 2 5 1009.2 1008.9 9.2
15/08:00am 26.0 31.3 23.7 87 1.6 E 2 2 1 1 1008.9 1008.6 9.2
15/07:30am 25.4 30.9 24.0 92 1.0 WNW 2 4 1 2 1008.9 1008.6 9.2
15/07:00am 24.7 30.1 23.8 95 0.6 N 2 4 1 2 1009.0 1008.7 9.2
15/06:30am 24.3 29.0 23.3 94 0.7 NW 4 9 2 5 1008.9 1008.6 9.2
15/06:00am 24.4 28.8 23.4 94 0.7 NW 6 15 3 8 1009.0 1008.7 9.0
15/05:30am 24.4 28.6 23.2 93 0.8 ENE 6 13 3 7 1007.5 1007.2 9.0
15/05:00am 24.1 28.3 23.1 94 0.7 NNW 6 9 3 5 1007.6 1007.3 8.8
15/04:30am 24.2 26.2 23.0 93 0.8 SE 17 28 9 15 1007.0 1006.7 8.0
15/04:00am 24.0 26.8 23.0 94 0.7 ESE 13 19 7 10 1006.9 1006.6 7.4
15/03:30am 24.6 28.9 22.7 89 1.3 NNW 4 7 2 4 1006.6 1006.3 1.8
15/03:00am 24.9 26.7 22.6 87 1.6 WNW 17 24 9 13 1007.3 1007.0 0.8
15/02:30am 27.3 33.1 24.6 85 1.9 WNW 2 4 1 2 1006.8 1006.5 0.0
15/02:00am 27.4 32.7 24.3 83 2.2 NW 4 6 2 3 1006.4 1006.1 0.0
15/01:30am 27.5 32.8 24.4 83 2.2 NNE 4 7 2 4 1006.3 1006.0 0.0
15/01:00am 27.4 32.8 24.5 84 2.0 NE 4 7 2 4 1006.5 1006.2 0.0
15/12:30am 27.3 32.1 24.2 83 2.1 NE 6 9 3 5 1006.6 1006.3 0.0
15/12:00am 27.3 32.9 24.2 83 2.2 E 2 6 1 3 1007.1 1006.8 0.0
 
Date/Time
EST
Temp
°C
App
Temp
°C
Dew
Point
°C
Rel
Hum
%
Delta-T
°C
Wind Press
QNH
hPa
Press
MSL
hPa
Rain since
9am
mm
Dir  Spd
km/h
Gust
km/h
Spd
kts
Gust
kts
14/11:30pm 27.5 32.5 23.9 81 2.5 ESE 4 7 2 4 1007.3 1007.0 0.0
14/11:00pm 27.7 32.4 24.3 82 2.4 SE 7 13 4 7 1007.4 1007.1 0.0
14/10:30pm 27.3 31.9 24.2 83 2.1 S 7 9 4 5 1007.2 1006.9 0.0
14/10:00pm 27.7 33.1 23.9 80 2.6 ENE 2 6 1 3 1006.5 1006.2 0.0
14/09:30pm 27.9 32.9 23.9 79 2.8 ENE 4 7 2 4 1006.8 1006.5 0.0
14/09:00pm 28.3 33.3 23.9 77 3.0 NE 4 9 2 5 1006.4 1006.1 0.0
14/08:30pm 28.7 33.1 23.8 75 3.4 NNE 7 13 4 7 1006.0 1005.7 0.0
14/08:00pm 28.8 33.3 23.7 74 3.5 NE 6 11 3 6 1006.0 1005.7 0.0
14/07:30pm 29.2 33.1 23.6 72 3.9 NE 9 15 5 8 1005.6 1005.3 0.0
14/07:00pm 29.8 33.5 23.3 68 4.5 NE 9 15 5 8 1005.4 1005.1 0.0
14/06:30pm 30.5 34.2 23.2 65 5.0 NNE 9 24 5 13 1005.1 1004.8 0.0
14/06:00pm 31.3 34.8 22.9 61 5.8 NNE 9 20 5 11 1004.7 1004.4 0.0
14/05:30pm 32.1 34.2 23.1 59 6.2 NNE 17 35 9 19 1004.1 1003.8 0.0
14/05:00pm 33.1 34.7 22.8 54 7.1 NNE 19 32 10 17 1003.5 1003.2 0.0
14/04:30pm 33.8 34.7 22.6 52 7.7 N 22 33 12 18 1003.2 1002.9 0.0
14/04:00pm 35.0 36.7 23.0 49 8.3 NNE 19 28 10 15 1003.4 1003.1 0.0
14/03:30pm 35.9 38.1 23.2 48 8.9 NNE 17 26 9 14 1003.5 1003.2 0.0
14/03:00pm 37.1 40.4 23.9 46 9.3 NNE 13 24 7 13 1003.8 1003.5 0.0
14/02:30pm 38.0 40.0 19.9 35 12.2 NNW 9 20 5 11 1004.3 1004.0 0.0
14/02:00pm 37.8 40.5 21.4 38 11.3 N 9 17 5 9 1004.8 1004.5 0.0
14/01:30pm 37.4 38.9 19.8 35 11.8 NNW 11 19 6 10 1005.2 1004.9 0.0
14/01:00pm 36.7 38.8 20.1 38 11.2 NNW 9 20 5 11 1005.4 1005.1 0.0
14/12:30pm 35.7 38.5 20.8 42 10.1 NW 7 17 4 9 1005.9 1005.6 0.0
14/12:00pm 35.7 37.7 21.5 43 9.7 NNW 13 20 7 11 1006.3 1006.0 0.0
14/11:30am 34.6 37.6 22.6 49 8.3 WNW 11 20 6 11 1006.9 1006.6 0.0
14/11:00am 33.7 36.4 22.1 50 7.9 NNW 11 19 6 10 1007.3 1007.0 0.0
14/10:30am 33.1 34.9 21.9 51 7.6 NNW 15 22 8 12 1007.7 1007.4 0.0
14/10:00am 32.7 35.9 23.1 57 6.6 NNW 11 20 6 11 1008.0 1007.7 0.0
14/09:30am 32.0 34.9 22.4 57 6.6 NNW 11 19 6 10 1008.3 1008.0 0.0
14/09:00am 30.0 34.1 23.2 67 4.7 WNW 7 13 4 7 1008.6 1008.3 0.0
14/08:30am 29.5 33.6 23.2 69 4.3 NW 7 13 4 7 1009.0 1008.7 0.0
14/08:00am 28.5 32.6 23.2 73 3.6 NW 7 11 4 6 1009.3 1009.0 0.0

Latest Capital City Observations: Canberra | Sydney | Melbourne | Brisbane | Adelaide | Perth | Hobart | Darwin

Other Formats:

Comma delimited format used in spreadsheet applications
http://www.bom.gov.au/fwo/IDQ60901/IDQ60901.95575.axf

JavaScript Object Notation format (JSON) in row-major order
http://www.bom.gov.au/fwo/IDQ60901/IDQ60901.95575.json